createdAt,value
2023-08-29T00:01:14.111Z,14.60
2023-08-29T00:03:44.274Z,14.60
2023-08-29T00:06:13.060Z,14.60
2023-08-29T00:08:41.794Z,14.60
2023-08-29T00:11:10.371Z,14.60
2023-08-29T00:13:41.935Z,14.60
2023-08-29T00:16:14.323Z,14.60
2023-08-29T00:18:45.652Z,14.60
2023-08-29T00:21:14.941Z,14.60
2023-08-29T00:23:43.712Z,14.60
2023-08-29T00:26:12.427Z,14.60
2023-08-29T00:28:43.492Z,14.60
2023-08-29T00:31:15.124Z,14.60
2023-08-29T00:33:44.792Z,14.50
2023-08-29T00:36:14.341Z,14.50
2023-08-29T00:38:43.550Z,14.60
2023-08-29T00:41:12.501Z,14.60
2023-08-29T00:43:42.784Z,14.60
2023-08-29T00:46:11.983Z,14.50
2023-08-29T00:48:40.868Z,14.60
2023-08-29T00:51:09.739Z,14.50
2023-08-29T00:53:39.264Z,14.50
2023-08-29T00:56:08.395Z,14.50
2023-08-29T00:58:38.762Z,14.50
2023-08-29T01:01:10.291Z,14.50
2023-08-29T01:03:40.254Z,14.50
2023-08-29T01:06:14.046Z,14.50
2023-08-29T01:08:44.862Z,14.50
2023-08-29T01:11:27.665Z,14.50
2023-08-29T01:14:02.250Z,14.50
2023-08-29T01:16:38.938Z,14.40
2023-08-29T01:19:16.217Z,14.40
2023-08-29T01:22:00.571Z,14.40
2023-08-29T01:24:37.485Z,14.40
2023-08-29T01:27:09.118Z,14.40
2023-08-29T01:29:41.013Z,14.40
2023-08-29T01:32:10.597Z,14.30
2023-08-29T01:34:43.369Z,14.30
2023-08-29T01:37:13.530Z,14.30
2023-08-29T01:39:42.361Z,14.30
2023-08-29T01:42:13.926Z,14.30
2023-08-29T01:44:42.607Z,14.30
2023-08-29T01:47:12.036Z,14.30
2023-08-29T01:49:42.829Z,14.20
2023-08-29T01:52:11.505Z,14.30
2023-08-29T01:54:40.484Z,14.30
2023-08-29T01:57:12.829Z,14.30
2023-08-29T01:59:42.208Z,14.30
2023-08-29T02:02:11.229Z,14.30
2023-08-29T02:04:40.501Z,14.30
2023-08-29T02:07:09.465Z,14.30
2023-08-29T02:09:38.148Z,14.20
2023-08-29T02:12:08.769Z,14.20
2023-08-29T02:14:38.821Z,14.20
2023-08-29T02:17:07.758Z,14.20
2023-08-29T02:19:36.652Z,14.20
2023-08-29T02:22:06.748Z,14.20
2023-08-29T02:24:35.830Z,14.20
2023-08-29T02:27:05.567Z,14.20
2023-08-29T02:29:35.220Z,14.30
2023-08-29T02:32:05.759Z,14.20
2023-08-29T02:34:34.556Z,14.20
2023-08-29T02:37:08.339Z,14.20
2023-08-29T02:39:37.114Z,14.30
2023-08-29T02:42:07.617Z,14.30
2023-08-29T02:44:36.384Z,14.30
2023-08-29T02:47:06.850Z,14.30
2023-08-29T02:49:35.307Z,14.20
2023-08-29T02:52:04.814Z,14.20
2023-08-29T02:54:33.227Z,14.20
2023-08-29T02:57:01.972Z,14.20
2023-08-29T02:59:31.223Z,14.20
2023-08-29T03:02:02.633Z,14.20
2023-08-29T03:04:33.102Z,14.20
2023-08-29T03:07:04.589Z,14.20
2023-08-29T03:09:35.146Z,14.20
2023-08-29T03:12:07.194Z,14.20
2023-08-29T03:14:36.873Z,14.20
2023-08-29T03:17:05.977Z,14.20
2023-08-29T03:19:36.318Z,14.10
2023-08-29T03:22:05.987Z,14.10
2023-08-29T03:24:35.288Z,14.10
2023-08-29T03:27:04.853Z,14.10
2023-08-29T03:29:35.559Z,14.10
2023-08-29T03:32:05.115Z,14.10
2023-08-29T03:34:38.297Z,14.00
2023-08-29T03:37:09.724Z,14.00
2023-08-29T03:39:38.558Z,14.00
2023-08-29T03:42:10.506Z,14.00
2023-08-29T03:44:40.955Z,14.10
2023-08-29T03:47:13.752Z,14.00
2023-08-29T03:49:45.171Z,14.00
2023-08-29T03:52:24.805Z,14.10
2023-08-29T03:54:56.674Z,14.10
2023-08-29T03:57:28.888Z,14.10
2023-08-29T03:59:58.399Z,14.00
2023-08-29T04:02:27.068Z,14.10
2023-08-29T04:05:15.951Z,14.10
2023-08-29T04:07:45.921Z,14.10
2023-08-29T04:10:15.831Z,14.10
2023-08-29T04:12:47.060Z,14.10
2023-08-29T04:15:16.346Z,14.00
2023-08-29T04:17:45.529Z,14.00
2023-08-29T04:20:17.810Z,14.00
2023-08-29T04:22:48.981Z,14.00
2023-08-29T04:25:17.629Z,14.10
2023-08-29T04:27:48.086Z,14.10
2023-08-29T04:30:18.199Z,14.10
2023-08-29T04:32:48.107Z,14.10
2023-08-29T04:35:20.676Z,14.10
2023-08-29T04:37:51.084Z,14.10
2023-08-29T04:40:23.473Z,14.00
2023-08-29T04:42:54.802Z,14.00
2023-08-29T04:45:24.612Z,14.00
2023-08-29T04:47:56.128Z,14.00
2023-08-29T04:50:27.448Z,14.00
2023-08-29T04:52:57.802Z,14.10
2023-08-29T04:55:27.360Z,14.10
2023-08-29T04:58:00.017Z,14.10
2023-08-29T05:00:31.263Z,14.10
2023-08-29T05:03:00.653Z,14.20
2023-08-29T05:05:31.273Z,14.20
2023-08-29T05:08:00.604Z,14.20
2023-08-29T05:10:30.686Z,14.20
2023-08-29T05:12:59.794Z,14.20
2023-08-29T05:15:30.886Z,14.20
2023-08-29T05:18:02.182Z,14.20
2023-08-29T05:20:33.855Z,14.10
2023-08-29T05:23:04.846Z,14.10
2023-08-29T05:25:34.024Z,14.10
2023-08-29T05:28:04.786Z,14.20
2023-08-29T05:30:37.134Z,14.20
2023-08-29T05:33:07.333Z,14.20
2023-08-29T05:35:38.052Z,14.30
2023-08-29T05:38:08.243Z,14.30
2023-08-29T05:40:37.389Z,14.40
2023-08-29T05:43:06.706Z,14.40
2023-08-29T05:45:35.796Z,14.40
2023-08-29T05:48:05.358Z,14.40
2023-08-29T05:50:39.654Z,14.40
2023-08-29T05:53:09.916Z,14.40
2023-08-29T05:55:39.475Z,14.40
2023-08-29T05:58:09.196Z,14.40
2023-08-29T06:00:41.749Z,14.40
2023-08-29T06:03:12.084Z,14.40
2023-08-29T06:05:43.135Z,14.50
2023-08-29T06:08:20.012Z,14.50
2023-08-29T06:10:49.908Z,14.60
2023-08-29T06:13:20.391Z,14.70
2023-08-29T06:15:49.696Z,14.70
2023-08-29T06:18:18.468Z,14.70
2023-08-29T06:20:49.615Z,14.70
2023-08-29T06:23:21.247Z,14.70
2023-08-29T06:25:50.706Z,14.70
2023-08-29T06:28:20.219Z,14.70
2023-08-29T06:30:49.009Z,14.70
2023-08-29T06:33:20.433Z,14.70
2023-08-29T06:35:49.620Z,14.70
2023-08-29T06:38:18.985Z,14.70
2023-08-29T06:40:57.301Z,14.70
2023-08-29T06:43:26.633Z,14.80
2023-08-29T06:45:57.222Z,14.80
2023-08-29T06:48:28.803Z,14.80
2023-08-29T06:50:59.688Z,14.80
2023-08-29T06:53:31.796Z,14.80
2023-08-29T06:56:02.588Z,14.80
2023-08-29T06:58:31.716Z,14.80
2023-08-29T07:01:02.315Z,14.80
2023-08-29T07:03:30.815Z,14.90
2023-08-29T07:06:04.068Z,14.90
2023-08-29T07:15:09.284Z,14.90
2023-08-29T07:17:39.862Z,15.00
2023-08-29T07:20:12.761Z,15.00
2023-08-29T07:22:44.476Z,15.00
2023-08-29T07:25:13.865Z,15.10
2023-08-29T07:27:42.684Z,15.10
2023-08-29T07:30:16.874Z,15.10
2023-08-29T07:32:47.091Z,15.20
2023-08-29T07:35:17.731Z,15.20
2023-08-29T07:37:46.515Z,15.20
2023-08-29T07:40:15.554Z,15.20
2023-08-29T07:42:46.315Z,15.20
2023-08-29T07:45:17.922Z,15.30
2023-08-29T07:47:47.604Z,15.30
2023-08-29T07:50:18.177Z,15.40
2023-08-29T07:52:47.565Z,15.40
2023-08-29T07:55:16.153Z,15.50
2023-08-29T07:57:45.479Z,15.50
2023-08-29T08:00:20.020Z,15.60
2023-08-29T08:02:48.938Z,15.60
2023-08-29T08:05:21.280Z,15.70
2023-08-29T08:07:50.017Z,15.80
2023-08-29T08:10:22.356Z,15.80
2023-08-29T08:12:51.976Z,15.90
2023-08-29T08:15:22.903Z,15.90
2023-08-29T08:17:52.190Z,15.90
2023-08-29T08:20:21.399Z,15.90
2023-08-29T08:22:50.274Z,16.00
2023-08-29T08:25:19.064Z,16.00
2023-08-29T08:27:48.129Z,16.00
2023-08-29T08:30:17.479Z,16.10
2023-08-29T08:32:48.451Z,16.10
2023-08-29T08:35:17.254Z,16.00
2023-08-29T08:37:46.440Z,16.10
2023-08-29T08:40:18.464Z,16.10
2023-08-29T08:42:47.505Z,16.10
2023-08-29T08:45:16.531Z,16.10
2023-08-29T08:47:48.078Z,16.10
2023-08-29T08:50:19.110Z,16.10
2023-08-29T08:52:51.864Z,16.10
2023-08-29T08:55:20.574Z,16.20
2023-08-29T08:57:49.573Z,16.20
2023-08-29T09:00:19.369Z,16.30
2023-08-29T09:02:52.641Z,16.40
2023-08-29T09:05:21.988Z,16.50
2023-08-29T09:07:54.697Z,16.60
2023-08-29T09:10:23.641Z,16.70
2023-08-29T09:12:57.130Z,16.70
2023-08-29T09:15:29.032Z,16.70
2023-08-29T09:18:00.406Z,16.70
2023-08-29T09:20:31.975Z,16.80
2023-08-29T09:23:03.531Z,16.90
2023-08-29T09:25:32.554Z,17.10
2023-08-29T09:28:01.423Z,17.30
2023-08-29T09:30:30.728Z,17.40
2023-08-29T09:33:10.394Z,17.60
2023-08-29T09:35:39.038Z,17.80
2023-08-29T09:38:08.129Z,17.90
2023-08-29T09:40:49.944Z,17.70
2023-08-29T09:43:20.000Z,17.70
2023-08-29T09:45:52.490Z,17.70
2023-08-29T09:48:24.316Z,17.80
2023-08-29T09:50:53.964Z,17.80
2023-08-29T09:53:24.062Z,17.60
2023-08-29T09:56:06.926Z,17.50
2023-08-29T09:58:36.880Z,17.50
2023-08-29T10:01:12.510Z,17.40
2023-08-29T10:03:45.736Z,17.30
2023-08-29T10:06:18.638Z,17.20
2023-08-29T10:08:54.211Z,17.20
2023-08-29T10:11:32.383Z,17.10
2023-08-29T10:14:08.112Z,17.00
2023-08-29T10:16:37.535Z,17.10
2023-08-29T10:19:08.470Z,16.90
2023-08-29T10:21:38.524Z,16.90
2023-08-29T10:24:09.718Z,16.90
2023-08-29T10:26:41.525Z,16.80
2023-08-29T10:29:11.311Z,16.70
2023-08-29T10:31:40.850Z,16.70
2023-08-29T10:34:15.371Z,16.70
2023-08-29T10:36:48.407Z,16.70
2023-08-29T10:39:18.368Z,16.70
2023-08-29T10:41:48.544Z,16.90
2023-08-29T10:44:36.523Z,17.00
2023-08-29T10:47:28.047Z,17.20
2023-08-29T10:50:06.360Z,17.20
2023-08-29T10:52:43.108Z,17.40
2023-08-29T10:55:23.578Z,17.40
2023-08-29T10:57:54.815Z,17.40
2023-08-29T11:00:55.229Z,17.40
2023-08-29T11:03:45.927Z,17.40
2023-08-29T11:06:21.347Z,17.60
2023-08-29T11:08:52.111Z,17.80
2023-08-29T11:11:23.874Z,18.20
2023-08-29T11:14:04.401Z,18.90
2023-08-29T11:16:36.934Z,19.60
2023-08-29T11:19:13.268Z,20.10
2023-08-29T11:21:48.451Z,20.70
2023-08-29T11:24:18.873Z,21.20
2023-08-29T11:29:39.176Z,21.80
2023-08-29T11:32:09.354Z,22.10
2023-08-29T11:34:39.000Z,22.10
2023-08-29T11:37:13.372Z,22.30
2023-08-29T11:39:42.501Z,22.30
2023-08-29T11:43:00.747Z,22.40
2023-08-29T11:45:45.471Z,22.30
2023-08-29T11:48:00.742Z,22.10
2023-08-29T11:50:29.836Z,21.90
2023-08-29T11:53:02.783Z,21.70
2023-08-29T11:55:33.719Z,21.60
2023-08-29T11:58:02.614Z,21.60
2023-08-29T12:00:32.532Z,21.40
2023-08-29T12:03:03.992Z,21.30
2023-08-29T12:05:38.505Z,21.30
2023-08-29T12:08:10.077Z,21.30
2023-08-29T12:10:40.619Z,21.10
2023-08-29T12:13:16.336Z,21.10
2023-08-29T12:15:49.059Z,21.10
2023-08-29T12:18:38.519Z,21.00
2023-08-29T12:21:22.321Z,20.80
2023-08-29T12:23:53.904Z,20.70
2023-08-29T12:26:22.523Z,20.70
2023-08-29T12:28:51.008Z,20.70
2023-08-29T12:31:19.545Z,20.60
2023-08-29T12:33:48.063Z,20.40
2023-08-29T12:36:16.516Z,20.30
2023-08-29T12:38:45.191Z,20.30
2023-08-29T12:41:18.295Z,20.10
2023-08-29T12:43:48.475Z,20.10
2023-08-29T12:46:17.620Z,20.10
2023-08-29T12:48:47.538Z,20.10
2023-08-29T12:51:16.506Z,20.00
2023-08-29T12:53:46.061Z,20.00
2023-08-29T12:56:17.999Z,20.00
2023-08-29T12:58:47.774Z,19.90
2023-08-29T13:01:19.082Z,19.80
2023-08-29T13:03:49.012Z,19.80
2023-08-29T13:06:18.971Z,19.60
2023-08-29T13:08:47.890Z,19.60
2023-08-29T13:11:18.371Z,19.50
2023-08-29T13:13:48.224Z,19.50
2023-08-29T13:16:19.351Z,19.60
2023-08-29T13:18:48.597Z,19.60
2023-08-29T13:21:18.102Z,19.50
2023-08-29T13:23:48.243Z,19.60
2023-08-29T13:26:21.233Z,19.50
2023-08-29T13:28:50.245Z,19.60
2023-08-29T13:31:23.427Z,19.70
2023-08-29T13:33:52.929Z,19.70
2023-08-29T13:36:21.991Z,19.70
2023-08-29T13:38:52.683Z,19.70
2023-08-29T13:41:23.277Z,19.70
2023-08-29T13:44:00.507Z,19.70
2023-08-29T13:46:36.318Z,19.70
2023-08-29T13:49:08.011Z,19.60
2023-08-29T13:51:37.020Z,19.60
2023-08-29T13:54:06.756Z,19.60
2023-08-29T13:56:42.095Z,19.70
2023-08-29T13:59:11.069Z,19.70
2023-08-29T14:01:39.893Z,19.60
2023-08-29T14:04:09.082Z,19.60
2023-08-29T14:06:38.069Z,19.70
2023-08-29T14:09:06.595Z,19.70
2023-08-29T14:11:36.844Z,19.60
2023-08-29T14:14:06.647Z,19.60
2023-08-29T14:16:35.486Z,19.60
2023-08-29T14:19:04.811Z,19.40
2023-08-29T14:21:33.312Z,19.50
2023-08-29T14:24:08.187Z,19.50
2023-08-29T14:26:41.643Z,19.40
2023-08-29T14:29:10.523Z,19.40
2023-08-29T14:31:41.146Z,19.30
2023-08-29T14:34:13.201Z,19.30
2023-08-29T14:36:46.724Z,19.30
2023-08-29T14:39:19.429Z,19.20
2023-08-29T14:41:56.388Z,19.20
2023-08-29T14:44:27.770Z,19.20
2023-08-29T14:46:56.499Z,19.20
2023-08-29T14:52:15.187Z,19.10
2023-08-29T14:54:45.026Z,19.10
2023-08-29T14:57:19.467Z,19.10
2023-08-29T14:59:52.160Z,19.00
2023-08-29T15:02:21.738Z,19.00
2023-08-29T15:04:50.311Z,19.00
2023-08-29T15:07:24.674Z,19.00
2023-08-29T15:09:53.352Z,18.90
2023-08-29T15:12:30.193Z,18.80
2023-08-29T15:15:00.467Z,18.80
2023-08-29T15:17:33.188Z,18.90
2023-08-29T15:20:03.561Z,18.90
2023-08-29T15:22:32.323Z,18.90
2023-08-29T15:25:04.366Z,18.80
2023-08-29T15:27:36.020Z,18.80
2023-08-29T15:30:16.693Z,18.80
2023-08-29T15:32:46.469Z,18.70
2023-08-29T15:35:16.570Z,18.70
2023-08-29T15:37:45.988Z,18.60
2023-08-29T15:40:15.265Z,18.70
2023-08-29T15:42:45.799Z,18.70
2023-08-29T15:45:18.471Z,18.70
2023-08-29T15:47:47.491Z,18.50
2023-08-29T15:50:19.818Z,18.50
2023-08-29T15:52:50.157Z,18.50
2023-08-29T15:55:20.780Z,18.50
2023-08-29T15:57:53.638Z,18.50
2023-08-29T16:00:23.750Z,18.50
2023-08-29T16:02:55.202Z,18.50
2023-08-29T16:05:26.597Z,18.50
2023-08-29T16:07:57.304Z,18.50
2023-08-29T16:10:26.541Z,18.40
2023-08-29T16:12:57.578Z,18.40
2023-08-29T16:15:26.651Z,18.50
2023-08-29T16:24:16.151Z,18.30
2023-08-29T16:26:46.758Z,18.20
2023-08-29T16:29:18.427Z,18.20
2023-08-29T16:31:47.699Z,18.10
2023-08-29T16:34:16.433Z,18.10
2023-08-29T16:36:45.503Z,18.00
2023-08-29T16:39:15.768Z,18.00
2023-08-29T16:41:45.595Z,17.90
2023-08-29T16:44:14.343Z,17.90
2023-08-29T16:46:44.396Z,17.90
2023-08-29T16:49:13.455Z,17.90
2023-08-29T16:51:44.640Z,17.90
2023-08-29T16:54:16.465Z,17.90
2023-08-29T16:56:46.010Z,17.90
2023-08-29T16:59:14.757Z,17.90
2023-08-29T17:01:45.032Z,17.80
2023-08-29T17:04:14.150Z,17.80
2023-08-29T17:06:43.361Z,17.80
2023-08-29T17:09:13.604Z,17.80
2023-08-29T17:11:44.423Z,17.70
2023-08-29T17:14:13.908Z,17.70
2023-08-29T17:16:44.606Z,17.60
2023-08-29T17:19:14.077Z,17.50
2023-08-29T17:21:44.405Z,17.40
2023-08-29T17:24:15.758Z,17.30
2023-08-29T17:26:45.822Z,17.30
2023-08-29T17:29:17.086Z,17.30
2023-08-29T17:31:47.659Z,17.30
2023-08-29T17:34:17.019Z,17.30
2023-08-29T17:36:45.738Z,17.30
2023-08-29T17:39:15.086Z,17.20
2023-08-29T17:48:48.484Z,17.20
2023-08-29T17:51:26.613Z,17.10
2023-08-29T17:53:56.088Z,17.10
2023-08-29T17:56:27.944Z,17.10
2023-08-29T17:58:58.424Z,17.00
2023-08-29T18:01:31.121Z,17.00
2023-08-29T18:04:11.204Z,16.90
2023-08-29T18:06:43.121Z,16.90
2023-08-29T18:09:12.429Z,16.90
2023-08-29T18:11:42.700Z,16.90
2023-08-29T18:14:15.148Z,16.90
2023-08-29T18:16:45.264Z,16.90
2023-08-29T18:19:18.477Z,16.90
2023-08-29T18:21:47.980Z,16.80
2023-08-29T18:24:16.761Z,16.80
2023-08-29T18:26:45.445Z,16.70
2023-08-29T18:29:14.789Z,16.70
2023-08-29T18:31:43.689Z,16.70
2023-08-29T18:34:15.179Z,16.60
2023-08-29T18:36:44.086Z,16.60
2023-08-29T18:39:12.930Z,16.60
2023-08-29T18:41:43.169Z,16.50
2023-08-29T18:44:12.017Z,16.50
2023-08-29T18:46:41.822Z,16.50
2023-08-29T18:49:10.714Z,16.40
2023-08-29T18:51:41.011Z,16.40
2023-08-29T18:54:09.706Z,16.40
2023-08-29T18:56:40.549Z,16.40
2023-08-29T18:59:10.589Z,16.40
2023-08-29T19:01:39.782Z,16.30
2023-08-29T19:04:11.024Z,16.30
2023-08-29T19:06:44.261Z,16.30
2023-08-29T19:09:16.518Z,16.20
2023-08-29T19:21:40.760Z,15.80
2023-08-29T19:24:12.522Z,15.70
2023-08-29T19:26:44.310Z,15.60
2023-08-29T19:29:17.461Z,15.60
2023-08-29T19:31:46.482Z,15.50
2023-08-29T19:34:15.433Z,15.50
2023-08-29T19:36:45.065Z,15.40
2023-08-29T19:39:17.604Z,15.40
2023-08-29T19:41:46.723Z,15.40
2023-08-29T19:44:17.796Z,15.30
2023-08-29T19:46:47.169Z,15.30
2023-08-29T19:49:17.581Z,15.30
2023-08-29T19:51:46.662Z,15.30
2023-08-29T19:54:17.828Z,15.20
2023-08-29T19:56:50.399Z,15.30
2023-08-29T19:59:20.653Z,15.30
2023-08-29T20:01:52.585Z,15.30
2023-08-29T20:04:21.358Z,15.30
2023-08-29T20:06:51.938Z,15.30
2023-08-29T20:09:23.680Z,15.30
2023-08-29T20:11:55.261Z,15.30
2023-08-29T20:14:23.970Z,15.20
2023-08-29T20:16:53.986Z,15.20
2023-08-29T20:19:25.388Z,15.20
2023-08-29T20:21:54.770Z,15.20
2023-08-29T20:24:25.282Z,15.20
2023-08-29T20:26:54.536Z,15.20
2023-08-29T20:29:23.309Z,15.10
2023-08-29T20:31:53.371Z,15.10
2023-08-29T20:34:23.893Z,15.10
2023-08-29T20:36:53.523Z,15.10
2023-08-29T20:39:24.705Z,15.10
2023-08-29T20:41:52.982Z,15.10
2023-08-29T20:44:21.478Z,15.10
2023-08-29T20:46:50.730Z,15.10
2023-08-29T20:49:19.251Z,15.10
2023-08-29T20:51:48.354Z,15.00
2023-08-29T20:54:17.083Z,15.00
2023-08-29T20:56:49.111Z,15.00
2023-08-29T20:59:17.634Z,14.90
2023-08-29T21:01:47.192Z,14.90
2023-08-29T21:04:16.676Z,14.90
2023-08-29T21:06:45.856Z,14.80
2023-08-29T21:09:15.201Z,14.80
2023-08-29T21:11:44.287Z,14.70
2023-08-29T21:14:14.366Z,14.70
2023-08-29T21:16:43.214Z,14.70
2023-08-29T21:19:17.566Z,14.60
2023-08-29T21:21:49.076Z,14.60
2023-08-29T21:24:19.351Z,14.50
2023-08-29T21:26:48.472Z,14.40
2023-08-29T21:29:18.477Z,14.40
2023-08-29T21:31:47.381Z,14.40
2023-08-29T21:34:17.074Z,14.40
2023-08-29T21:36:47.347Z,14.30
2023-08-29T21:39:17.790Z,14.30
2023-08-29T21:41:46.385Z,14.30
2023-08-29T21:44:15.458Z,14.30
2023-08-29T21:46:46.449Z,14.30
2023-08-29T21:49:14.906Z,14.30
2023-08-29T21:51:44.494Z,14.20
2023-08-29T21:54:13.321Z,14.20
2023-08-29T21:56:42.518Z,14.20
2023-08-29T21:59:11.684Z,14.10
2023-08-29T22:01:40.694Z,14.10
2023-08-29T22:04:12.925Z,14.00
2023-08-29T22:06:41.516Z,14.00
2023-08-29T22:09:11.031Z,13.90
2023-08-29T22:11:39.957Z,13.90
2023-08-29T22:14:10.973Z,13.80
2023-08-29T22:16:40.274Z,13.80
2023-08-29T22:19:10.819Z,13.80
2023-08-29T22:21:40.276Z,13.70
2023-08-29T22:24:10.167Z,13.70
2023-08-29T22:26:38.597Z,13.60
2023-08-29T22:29:08.003Z,13.60
2023-08-29T22:31:39.537Z,13.50
2023-08-29T22:34:10.084Z,13.50
2023-08-29T22:36:39.121Z,13.40
2023-08-29T22:39:08.387Z,13.40
2023-08-29T22:41:37.841Z,13.40
2023-08-29T22:44:08.395Z,13.30
2023-08-29T22:46:37.734Z,13.30
2023-08-29T22:49:09.346Z,13.30
2023-08-29T22:51:40.028Z,13.20
2023-08-29T22:54:09.529Z,13.20
2023-08-29T22:56:38.353Z,13.10
2023-08-29T22:59:08.017Z,13.10
2023-08-29T23:01:36.746Z,13.00
2023-08-29T23:04:07.925Z,13.00
2023-08-29T23:06:37.421Z,12.90
2023-08-29T23:09:08.692Z,12.90
2023-08-29T23:11:37.635Z,12.90
2023-08-29T23:14:08.884Z,12.90
2023-08-29T23:16:38.414Z,12.80
2023-08-29T23:19:07.207Z,12.80
2023-08-29T23:21:37.185Z,12.80
2023-08-29T23:24:08.229Z,12.80
2023-08-29T23:26:38.365Z,12.80
2023-08-29T23:29:08.440Z,12.80
2023-08-29T23:31:38.706Z,12.80
2023-08-29T23:34:07.791Z,12.80
2023-08-29T23:36:37.133Z,12.80
2023-08-29T23:39:08.729Z,12.80
2023-08-29T23:41:38.511Z,12.80
2023-08-29T23:44:08.430Z,12.80
2023-08-29T23:46:37.574Z,12.80
2023-08-29T23:49:08.770Z,12.80
2023-08-29T23:51:37.546Z,12.70
2023-08-29T23:54:08.715Z,12.70
2023-08-29T23:56:37.772Z,12.70
2023-08-29T23:59:06.998Z,12.70
